createdAt,value
2022-08-20T00:00:23.817Z,35.67
2022-08-20T00:02:54.363Z,36.38
2022-08-20T00:05:26.649Z,37.08
2022-08-20T00:10:23.795Z,36.40
2022-08-20T00:12:52.105Z,36.58
2022-08-20T00:15:25.885Z,35.90
2022-08-20T00:17:54.685Z,34.42
2022-08-20T00:20:26.041Z,34.58
2022-08-20T00:22:54.122Z,34.85
2022-08-20T00:25:22.244Z,35.70
2022-08-20T00:27:50.373Z,33.60
2022-08-20T00:30:18.992Z,35.30
2022-08-20T00:32:51.036Z,34.88
2022-08-20T00:35:21.348Z,36.88
2022-08-20T00:37:49.409Z,36.45
2022-08-20T00:40:23.279Z,35.03
2022-08-20T00:42:55.444Z,35.00
2022-08-20T00:45:23.428Z,35.15
2022-08-20T00:47:55.291Z,35.55
2022-08-20T00:50:28.675Z,35.17
2022-08-20T00:52:57.052Z,35.15
2022-08-20T00:55:31.082Z,33.92
2022-08-20T00:58:03.734Z,33.97
2022-08-20T01:03:02.508Z,32.95
2022-08-20T01:05:31.079Z,32.58
2022-08-20T01:07:59.343Z,32.90
2022-08-20T01:10:29.701Z,33.53
2022-08-20T01:12:59.939Z,33.95
2022-08-20T01:15:31.748Z,31.98
2022-08-20T01:18:02.373Z,32.08
2022-08-20T01:20:34.109Z,34.95
2022-08-20T01:23:24.562Z,34.17
2022-08-20T01:25:55.734Z,33.42
2022-08-20T01:28:25.785Z,35.80
2022-08-20T01:30:54.672Z,36.15
2022-08-20T01:33:24.022Z,37.65
2022-08-20T01:35:53.451Z,36.47
2022-08-20T01:38:22.124Z,36.25
2022-08-20T01:41:15.318Z,36.60
2022-08-20T01:43:43.409Z,36.65
2022-08-20T01:46:11.802Z,36.80
2022-08-20T01:48:41.793Z,37.30
2022-08-20T01:51:13.621Z,37.00
2022-08-20T01:53:44.345Z,37.38
2022-08-20T01:56:17.619Z,36.92
2022-08-20T01:58:49.455Z,35.42
2022-08-20T02:01:26.164Z,35.10
2022-08-20T02:03:55.091Z,34.72
2022-08-20T02:06:25.674Z,34.67
2022-08-20T02:08:56.101Z,35.90
2022-08-20T02:11:25.623Z,36.80
2022-08-20T02:13:54.504Z,35.28
2022-08-20T02:16:25.553Z,36.78
2022-08-20T02:18:56.157Z,37.17
2022-08-20T02:21:25.199Z,37.80
2022-08-20T02:23:53.221Z,37.47
2022-08-20T02:26:21.501Z,40.20
2022-08-20T02:28:52.556Z,39.15
2022-08-20T02:31:22.316Z,40.03
2022-08-20T02:34:14.883Z,39.55
2022-08-20T02:36:39.731Z,39.80
2022-08-20T02:39:10.407Z,41.50
2022-08-20T02:41:39.534Z,40.90
2022-08-20T02:44:09.855Z,40.03
2022-08-20T02:46:38.356Z,40.03
2022-08-20T02:49:06.915Z,41.70
2022-08-20T02:51:35.002Z,42.22
2022-08-20T02:54:03.122Z,43.20
2022-08-20T02:56:31.112Z,41.65
2022-08-20T02:58:59.087Z,43.00
2022-08-20T03:01:28.558Z,41.28
2022-08-20T03:03:59.029Z,42.08
2022-08-20T03:06:27.354Z,44.00
2022-08-20T03:08:55.489Z,42.40
2022-08-20T03:11:23.504Z,43.80
2022-08-20T03:13:52.170Z,42.65
2022-08-20T03:16:20.206Z,43.53
2022-08-20T03:18:52.096Z,44.60
2022-08-20T03:21:20.393Z,44.97
2022-08-20T03:23:48.508Z,44.60
2022-08-20T03:26:17.389Z,45.10
2022-08-20T03:28:45.423Z,45.22
2022-08-20T03:31:17.433Z,45.65
2022-08-20T03:33:52.962Z,44.42
2022-08-20T03:36:28.731Z,47.05
2022-08-20T03:38:57.735Z,45.33
2022-08-20T03:41:26.079Z,46.15
2022-08-20T03:43:54.570Z,45.00
2022-08-20T03:46:23.663Z,46.78
2022-08-20T03:48:58.719Z,46.70
2022-08-20T03:51:29.850Z,46.50
2022-08-20T03:53:57.948Z,47.05
2022-08-20T03:56:26.834Z,46.35
2022-08-20T03:58:54.988Z,45.35
2022-08-20T04:01:44.460Z,47.03
2022-08-20T04:04:12.118Z,47.28
2022-08-20T04:06:42.410Z,47.50
2022-08-20T04:09:11.969Z,45.47
2022-08-20T04:11:40.704Z,46.75
2022-08-20T04:14:10.414Z,45.25
2022-08-20T04:16:40.531Z,48.47
2022-08-20T04:19:09.194Z,45.97
2022-08-20T04:21:37.882Z,44.47
2022-08-20T04:24:07.497Z,47.97
2022-08-20T04:26:37.251Z,43.88
2022-08-20T04:29:05.528Z,45.20
2022-08-20T04:31:34.734Z,46.28
2022-08-20T04:34:03.499Z,43.90
2022-08-20T04:36:31.617Z,46.08
2022-08-20T04:38:59.685Z,46.70
2022-08-20T04:41:29.053Z,45.92
2022-08-20T04:43:58.125Z,45.45
2022-08-20T04:46:28.746Z,46.22
2022-08-20T04:48:58.184Z,46.72
2022-08-20T04:51:26.886Z,45.47
2022-08-20T04:53:56.344Z,46.45
2022-08-20T04:56:26.285Z,46.92
2022-08-20T04:58:58.867Z,47.58
2022-08-20T05:01:27.331Z,48.25
2022-08-20T05:03:55.889Z,47.17
2022-08-20T05:06:28.577Z,50.10
2022-08-20T05:08:58.925Z,48.55
2022-08-20T05:11:33.088Z,47.17
2022-08-20T05:14:08.559Z,48.08
2022-08-20T05:16:41.117Z,50.25
2022-08-20T05:19:12.115Z,46.40
2022-08-20T05:21:40.910Z,49.50
2022-08-20T05:24:10.106Z,48.22
2022-08-20T05:26:38.255Z,47.35
2022-08-20T05:29:07.858Z,46.85
2022-08-20T05:31:36.214Z,46.47
2022-08-20T05:34:09.725Z,47.78
2022-08-20T05:36:39.656Z,46.90
2022-08-20T05:39:09.615Z,46.00
2022-08-20T05:41:37.913Z,47.22
2022-08-20T05:44:10.714Z,46.50
2022-08-20T05:46:40.796Z,47.22
2022-08-20T05:49:09.595Z,46.58
2022-08-20T05:51:37.806Z,48.65
2022-08-20T05:54:06.740Z,46.90
2022-08-20T05:56:35.267Z,46.67
2022-08-20T05:59:05.255Z,47.95
2022-08-20T06:01:36.707Z,47.72
2022-08-20T06:04:23.257Z,47.67
2022-08-20T06:06:52.747Z,46.95
2022-08-20T06:09:28.618Z,45.03
2022-08-20T06:12:02.228Z,45.63
2022-08-20T06:14:30.871Z,46.53
2022-08-20T06:17:05.554Z,45.80
2022-08-20T06:19:34.747Z,47.75
2022-08-20T06:22:08.642Z,45.95
2022-08-20T06:24:47.291Z,45.88
2022-08-20T06:27:16.719Z,47.25
2022-08-20T06:29:44.768Z,48.00
2022-08-20T06:32:14.272Z,48.90
2022-08-20T06:34:50.149Z,50.38
2022-08-20T06:37:21.802Z,47.58
2022-08-20T06:39:50.527Z,47.63
2022-08-20T06:42:20.931Z,48.25
2022-08-20T06:44:50.879Z,49.05
2022-08-20T06:47:21.651Z,49.03
2022-08-20T06:49:49.892Z,48.92
2022-08-20T06:52:18.661Z,47.20
2022-08-20T06:54:46.900Z,47.03
2022-08-20T06:57:14.972Z,47.83
2022-08-20T06:59:43.016Z,47.55
2022-08-20T07:02:11.106Z,49.10
2022-08-20T07:04:40.440Z,49.42
2022-08-20T07:07:16.878Z,48.83
2022-08-20T07:09:45.060Z,46.83
2022-08-20T07:12:13.131Z,47.47
2022-08-20T07:14:41.227Z,46.90
2022-08-20T07:17:11.358Z,45.30
2022-08-20T07:19:41.734Z,45.63
2022-08-20T07:22:09.721Z,43.55
2022-08-20T07:24:41.121Z,47.38
2022-08-20T07:27:10.036Z,45.50
2022-08-20T07:29:55.739Z,44.55
2022-08-20T07:32:36.875Z,43.97
2022-08-20T07:35:11.940Z,44.10
2022-08-20T07:37:41.481Z,43.63
2022-08-20T07:40:12.899Z,42.78
2022-08-20T07:42:41.448Z,42.40
2022-08-20T07:45:11.114Z,42.85
2022-08-20T07:47:39.368Z,42.88
2022-08-20T07:50:10.501Z,41.67
2022-08-20T07:52:38.520Z,41.50
2022-08-20T07:55:08.840Z,39.50
2022-08-20T07:57:37.498Z,38.88
2022-08-20T08:00:08.448Z,38.67
2022-08-20T08:02:37.268Z,38.28
2022-08-20T08:05:06.564Z,37.92
2022-08-20T08:07:36.559Z,37.40
2022-08-20T08:10:07.713Z,35.10
2022-08-20T08:12:38.744Z,36.53
2022-08-20T08:15:09.552Z,33.13
2022-08-20T08:17:38.703Z,34.40
2022-08-20T08:20:07.981Z,34.10
2022-08-20T08:22:37.291Z,34.33
2022-08-20T08:25:06.277Z,33.00
2022-08-20T08:27:34.373Z,30.95
2022-08-20T08:30:03.039Z,31.48
2022-08-20T08:32:32.251Z,31.15
2022-08-20T08:35:04.787Z,29.92
2022-08-20T08:37:32.798Z,30.90
2022-08-20T08:40:02.673Z,30.40
2022-08-20T08:42:40.047Z,30.80
2022-08-20T08:45:11.643Z,30.45
2022-08-20T08:47:41.254Z,29.90
2022-08-20T08:50:43.853Z,27.92
2022-08-20T08:53:17.342Z,26.48
2022-08-20T08:55:46.665Z,26.80
2022-08-20T08:58:17.040Z,27.10
2022-08-20T09:00:56.426Z,27.15
2022-08-20T09:03:32.801Z,26.60
2022-08-20T09:06:02.645Z,24.88
2022-08-20T09:08:34.092Z,24.23
2022-08-20T09:11:06.139Z,24.10
2022-08-20T09:13:34.480Z,23.60
2022-08-20T09:16:02.520Z,23.25
2022-08-20T09:18:30.480Z,23.77
2022-08-20T09:20:58.450Z,21.83
2022-08-20T09:23:26.402Z,21.45
2022-08-20T09:25:54.461Z,21.17
2022-08-20T09:28:23.739Z,21.33
2022-08-20T09:30:52.576Z,20.02
2022-08-20T09:33:20.661Z,20.25
2022-08-20T09:35:49.585Z,18.95
2022-08-20T09:38:17.722Z,19.15
2022-08-20T09:40:45.761Z,17.73
2022-08-20T09:43:13.865Z,18.08
2022-08-20T09:45:43.148Z,16.83
2022-08-20T09:48:11.180Z,18.65
2022-08-20T09:50:43.144Z,16.70
2022-08-20T09:53:11.928Z,16.92
2022-08-20T09:55:41.572Z,17.90
2022-08-20T09:58:16.633Z,17.80
2022-08-20T10:00:45.984Z,18.55
2022-08-20T10:03:13.980Z,19.10
2022-08-20T10:05:42.128Z,18.75
2022-08-20T10:08:11.381Z,16.90
2022-08-20T10:10:39.365Z,17.88
2022-08-20T10:13:07.371Z,17.15
2022-08-20T10:15:36.550Z,16.85
2022-08-20T10:18:07.803Z,17.10
2022-08-20T10:20:36.544Z,16.37
2022-08-20T10:23:05.413Z,16.48
2022-08-20T10:25:33.554Z,15.82
2022-08-20T10:28:01.534Z,14.93
2022-08-20T10:30:29.659Z,15.27
2022-08-20T10:32:57.659Z,15.05
2022-08-20T10:35:27.159Z,13.13
2022-08-20T10:37:55.369Z,14.23
2022-08-20T10:40:23.786Z,14.15
2022-08-20T10:42:52.095Z,14.05
2022-08-20T10:45:20.221Z,12.32
2022-08-20T10:47:48.223Z,12.10
2022-08-20T10:50:17.267Z,11.70
2022-08-20T10:52:47.251Z,10.50
2022-08-20T10:55:15.930Z,9.77
2022-08-20T10:57:44.969Z,9.23
2022-08-20T11:00:15.780Z,8.95
2022-08-20T11:02:44.050Z,7.88
2022-08-20T11:05:12.078Z,8.23
2022-08-20T11:07:54.854Z,7.53
2022-08-20T11:10:27.233Z,7.60
2022-08-20T11:12:55.435Z,6.78
2022-08-20T11:15:23.769Z,6.20
2022-08-20T11:17:51.782Z,5.80
2022-08-20T11:20:21.502Z,7.05
2022-08-20T11:22:49.536Z,7.10
2022-08-20T11:25:17.753Z,5.93
2022-08-20T11:27:49.212Z,6.55
2022-08-20T11:30:20.359Z,6.28
2022-08-20T11:32:48.393Z,6.75
2022-08-20T11:38:05.588Z,7.45
2022-08-20T11:40:35.565Z,7.40
2022-08-20T11:43:20.292Z,7.82
2022-08-20T11:45:51.035Z,8.77
2022-08-20T11:48:19.215Z,8.82
2022-08-20T11:50:47.776Z,9.30
2022-08-20T11:53:16.008Z,8.73
2022-08-20T11:55:44.650Z,9.27
2022-08-20T11:58:13.985Z,9.20
2022-08-20T12:00:42.444Z,9.00
2022-08-20T12:03:11.583Z,9.60
2022-08-20T12:05:41.199Z,8.95
2022-08-20T12:08:10.080Z,9.40
2022-08-20T12:10:53.423Z,9.85
2022-08-20T12:13:23.661Z,9.40
2022-08-20T12:15:59.881Z,9.77
2022-08-20T12:18:28.046Z,9.38
2022-08-20T12:20:56.106Z,8.68
2022-08-20T12:23:24.130Z,8.70
2022-08-20T12:25:52.112Z,8.95
2022-08-20T12:28:20.265Z,8.77
2022-08-20T12:30:55.371Z,8.15
2022-08-20T12:33:23.376Z,8.57
2022-08-20T12:35:51.652Z,9.57
2022-08-20T12:38:19.761Z,9.13
2022-08-20T12:40:47.810Z,9.88
2022-08-20T12:43:15.890Z,9.57
2022-08-20T12:45:43.908Z,9.57
2022-08-20T12:48:14.227Z,10.13
2022-08-20T12:50:45.632Z,9.73
2022-08-20T12:53:13.617Z,10.27
2022-08-20T12:55:41.654Z,10.18
2022-08-20T12:58:10.934Z,10.52
2022-08-20T13:00:43.236Z,10.32
2022-08-20T13:03:13.787Z,10.73
2022-08-20T13:05:42.052Z,10.70
2022-08-20T13:08:11.653Z,11.00
2022-08-20T13:10:45.611Z,10.80
2022-08-20T13:13:14.039Z,11.93
2022-08-20T13:15:42.313Z,12.00
2022-08-20T13:18:10.327Z,12.63
2022-08-20T13:20:39.627Z,12.68
2022-08-20T13:23:07.655Z,12.25
2022-08-20T13:25:35.701Z,13.65
2022-08-20T13:28:05.918Z,12.88
2022-08-20T13:30:35.012Z,12.68
2022-08-20T13:33:03.052Z,12.57
2022-08-20T13:35:31.528Z,14.00
2022-08-20T13:38:00.867Z,13.35
2022-08-20T13:40:29.253Z,13.43
2022-08-20T13:42:57.435Z,13.90
2022-08-20T13:45:25.625Z,14.43
2022-08-20T13:47:55.144Z,14.25
2022-08-20T13:50:25.371Z,13.32
2022-08-20T13:52:53.479Z,15.73
2022-08-20T13:55:24.754Z,15.73
2022-08-20T13:57:53.808Z,14.95
2022-08-20T14:00:30.956Z,14.48
2022-08-20T14:03:00.630Z,15.00
2022-08-20T14:05:28.912Z,13.73
2022-08-20T14:07:56.900Z,14.77
2022-08-20T14:10:31.318Z,13.30
2022-08-20T14:12:59.639Z,13.98
2022-08-20T14:15:27.807Z,13.23
2022-08-20T14:17:57.861Z,14.05
2022-08-20T14:20:29.111Z,13.57
2022-08-20T14:22:58.198Z,13.52
2022-08-20T14:25:28.064Z,14.27
2022-08-20T14:27:56.709Z,13.80
2022-08-20T14:30:27.905Z,13.73
2022-08-20T14:32:56.392Z,13.73
2022-08-20T14:35:24.759Z,13.68
2022-08-20T14:37:55.473Z,13.23
2022-08-20T14:40:24.973Z,13.25
2022-08-20T14:42:55.015Z,13.13
2022-08-20T14:45:23.531Z,13.25
2022-08-20T14:47:54.049Z,12.80
2022-08-20T14:50:25.042Z,13.27
2022-08-20T14:52:53.358Z,12.73
2022-08-20T14:55:23.654Z,13.35
2022-08-20T14:57:51.782Z,13.95
2022-08-20T15:00:23.935Z,12.55
2022-08-20T15:05:20.075Z,12.20
2022-08-20T15:07:51.813Z,11.77
2022-08-20T15:10:24.644Z,11.82
2022-08-20T15:12:52.624Z,13.38
2022-08-20T15:15:22.513Z,11.32
2022-08-20T15:17:52.352Z,11.23
2022-08-20T15:20:22.756Z,10.82
2022-08-20T15:22:51.128Z,12.50
2022-08-20T15:25:23.018Z,11.75
2022-08-20T15:27:51.253Z,11.25
2022-08-20T15:30:21.043Z,11.90
2022-08-20T15:32:54.836Z,11.98
2022-08-20T15:35:23.844Z,11.75
2022-08-20T15:37:54.717Z,11.93
2022-08-20T15:40:28.080Z,12.18
2022-08-20T15:42:56.767Z,12.80
2022-08-20T15:45:25.265Z,14.20
2022-08-20T15:47:56.823Z,14.77
2022-08-20T15:50:57.215Z,14.50
2022-08-20T15:53:29.865Z,14.00
2022-08-20T15:56:03.281Z,13.27
2022-08-20T15:58:37.267Z,12.43
2022-08-20T16:01:24.663Z,13.00
2022-08-20T16:04:23.057Z,11.80
2022-08-20T16:06:53.707Z,11.77
2022-08-20T16:09:38.968Z,13.10
2022-08-20T16:12:11.333Z,12.10
2022-08-20T16:14:41.312Z,12.30
2022-08-20T16:17:11.113Z,11.77
2022-08-20T16:19:48.051Z,12.13
2022-08-20T16:22:17.472Z,12.05
2022-08-20T16:24:45.641Z,12.82
2022-08-20T16:27:18.158Z,11.93
2022-08-20T16:29:53.657Z,11.88
2022-08-20T16:32:37.634Z,12.85
2022-08-20T16:35:21.157Z,12.18
2022-08-20T16:37:57.282Z,12.70
2022-08-20T16:40:27.968Z,14.10
2022-08-20T16:42:58.542Z,12.38
2022-08-20T16:45:28.615Z,12.98
2022-08-20T16:48:01.195Z,12.90
2022-08-20T16:50:35.306Z,11.80
2022-08-20T16:53:03.251Z,11.88
2022-08-20T16:55:31.317Z,12.82
2022-08-20T16:57:59.408Z,11.90
2022-08-20T17:00:34.929Z,12.20
2022-08-20T17:03:05.527Z,12.77
2022-08-20T17:05:46.026Z,14.02
2022-08-20T17:08:21.598Z,12.68
2022-08-20T17:10:58.792Z,13.55
2022-08-20T17:13:30.168Z,12.10
2022-08-20T17:15:59.947Z,12.93
2022-08-20T17:18:31.631Z,12.00
2022-08-20T17:21:06.228Z,11.52
2022-08-20T17:23:54.824Z,12.35
2022-08-20T17:26:31.108Z,10.45
2022-08-20T17:29:01.482Z,9.60
2022-08-20T17:31:38.814Z,9.73
2022-08-20T17:34:14.480Z,9.20
2022-08-20T17:36:51.545Z,8.02
2022-08-20T17:39:21.445Z,8.50
2022-08-20T17:41:51.687Z,8.45
2022-08-20T17:44:22.323Z,7.35
2022-08-20T17:46:50.749Z,7.95
2022-08-20T17:49:21.161Z,8.55
2022-08-20T17:51:53.632Z,6.75
2022-08-20T17:54:22.932Z,8.70
2022-08-20T17:56:54.135Z,7.95
2022-08-20T17:59:59.799Z,7.50
2022-08-20T18:02:14.948Z,7.35
2022-08-20T18:04:44.007Z,6.18
2022-08-20T18:07:19.351Z,5.15
2022-08-20T18:09:51.824Z,4.47
2022-08-20T18:12:33.630Z,4.25
2022-08-20T18:15:10.169Z,4.30
2022-08-20T18:17:58.192Z,3.72
2022-08-20T18:20:40.427Z,3.65
2022-08-20T18:23:12.893Z,3.70
2022-08-20T18:25:45.841Z,3.67
2022-08-20T18:28:17.145Z,3.88
2022-08-20T18:30:50.666Z,4.55
2022-08-20T18:33:27.711Z,4.20
2022-08-20T18:36:05.758Z,3.60
2022-08-20T18:38:37.181Z,3.38
2022-08-20T18:41:15.013Z,3.83
2022-08-20T18:43:44.012Z,3.60
2022-08-20T18:46:22.190Z,3.88
2022-08-20T18:48:56.260Z,3.83
2022-08-20T18:51:30.099Z,3.50
2022-08-20T18:53:59.472Z,3.28
2022-08-20T18:56:36.848Z,3.78
2022-08-20T18:59:08.064Z,3.50
2022-08-20T19:01:38.003Z,3.47
2022-08-20T19:04:17.835Z,3.95
2022-08-20T19:06:49.242Z,4.10
2022-08-20T19:09:31.437Z,4.13
2022-08-20T19:12:07.548Z,4.45
2022-08-20T19:14:51.471Z,4.40
2022-08-20T19:17:26.782Z,5.07
2022-08-20T19:20:00.361Z,5.20
2022-08-20T19:22:28.704Z,4.50
2022-08-20T19:25:00.558Z,5.45
2022-08-20T19:27:29.726Z,5.60
2022-08-20T19:29:57.918Z,5.53
2022-08-20T19:32:28.067Z,4.90
2022-08-20T19:34:58.350Z,5.20
2022-08-20T19:37:39.999Z,5.55
2022-08-20T19:40:28.201Z,5.15
2022-08-20T19:42:58.045Z,4.78
2022-08-20T19:45:29.764Z,5.50
2022-08-20T19:48:27.544Z,5.25
2022-08-20T19:51:04.032Z,5.90
2022-08-20T19:53:34.405Z,5.53
2022-08-20T19:56:06.417Z,60.83
2022-08-20T19:58:35.685Z,50.75
2022-08-20T20:01:05.671Z,163.20
2022-08-20T20:03:35.599Z,13.77
2022-08-20T20:06:16.090Z,6.75
2022-08-20T20:08:51.345Z,5.50
2022-08-20T20:11:24.621Z,5.85
2022-08-20T20:13:53.144Z,5.57
2022-08-20T20:16:22.260Z,6.05
2022-08-20T20:19:03.982Z,5.78
2022-08-20T20:21:41.597Z,6.25
2022-08-20T20:24:10.147Z,5.95
2022-08-20T20:26:41.998Z,6.38
2022-08-20T20:29:13.258Z,6.28
2022-08-20T20:31:50.339Z,5.90
2022-08-20T20:34:19.540Z,6.50
2022-08-20T20:36:48.833Z,6.40
2022-08-20T20:39:30.307Z,6.28
2022-08-20T20:42:01.861Z,6.13
2022-08-20T20:44:37.137Z,6.15
2022-08-20T20:47:07.791Z,6.57
2022-08-20T20:49:49.302Z,6.25
2022-08-20T20:52:22.587Z,6.15
2022-08-20T20:54:50.712Z,6.40
2022-08-20T20:57:36.434Z,6.18
2022-08-20T21:00:09.321Z,6.25
2022-08-20T21:02:37.554Z,5.20
2022-08-20T21:05:06.342Z,6.57
2022-08-20T21:07:34.328Z,6.13
2022-08-20T21:10:02.280Z,6.47
2022-08-20T21:12:31.582Z,6.40
2022-08-20T21:14:59.535Z,5.28
2022-08-20T21:17:27.852Z,6.45
2022-08-20T21:19:55.856Z,6.30
2022-08-20T21:22:23.793Z,5.57
2022-08-20T21:24:51.778Z,5.63
2022-08-20T21:27:22.024Z,6.03
2022-08-20T21:29:51.933Z,5.60
2022-08-20T21:32:20.103Z,6.03
2022-08-20T21:34:48.801Z,6.18
2022-08-20T21:37:17.099Z,5.80
2022-08-20T21:39:45.522Z,5.60
2022-08-20T21:42:28.590Z,6.32
2022-08-20T21:44:59.028Z,6.22
2022-08-20T21:47:27.831Z,6.35
2022-08-20T21:49:55.856Z,7.22
2022-08-20T21:52:23.808Z,6.93
2022-08-20T21:54:53.207Z,8.80
2022-08-20T21:57:23.197Z,7.40
2022-08-20T21:59:51.305Z,7.25
2022-08-20T22:02:21.726Z,7.50
2022-08-20T22:04:53.861Z,7.20
2022-08-20T22:07:22.593Z,7.15
2022-08-20T22:09:50.558Z,7.30
2022-08-20T22:12:21.415Z,7.40
2022-08-20T22:14:49.528Z,7.80
2022-08-20T22:17:17.593Z,8.15
2022-08-20T22:19:47.001Z,8.32
2022-08-20T22:22:15.646Z,8.68
2022-08-20T22:24:45.548Z,8.75
2022-08-20T22:27:13.674Z,8.52
2022-08-20T22:29:41.738Z,8.13
2022-08-20T22:32:09.827Z,8.65
2022-08-20T22:34:38.278Z,8.40
2022-08-20T22:37:08.063Z,8.98
2022-08-20T22:39:36.057Z,8.77
2022-08-20T22:42:04.638Z,8.57
2022-08-20T22:44:32.599Z,9.45
2022-08-20T22:47:03.223Z,10.10
2022-08-20T22:49:33.662Z,9.65
2022-08-20T22:52:01.875Z,9.77
2022-08-20T22:54:31.166Z,10.25
2022-08-20T22:56:59.143Z,9.73
2022-08-20T22:59:27.579Z,10.60
2022-08-20T23:01:55.980Z,10.48
2022-08-20T23:04:26.429Z,10.77
2022-08-20T23:06:55.552Z,11.15
2022-08-20T23:09:24.741Z,10.45
2022-08-20T23:11:54.322Z,10.65
2022-08-20T23:14:22.857Z,9.80
2022-08-20T23:17:00.378Z,10.60
2022-08-20T23:19:28.475Z,10.05
2022-08-20T23:21:56.920Z,8.73
2022-08-20T23:24:24.938Z,9.20
2022-08-20T23:26:54.328Z,9.32
2022-08-20T23:29:25.418Z,8.23
2022-08-20T23:31:54.765Z,7.95
2022-08-20T23:34:23.372Z,7.60
2022-08-20T23:36:52.427Z,7.75
2022-08-20T23:39:20.950Z,7.47
2022-08-20T23:41:48.960Z,7.80
2022-08-20T23:44:26.655Z,8.23
2022-08-20T23:46:56.046Z,7.32
2022-08-20T23:49:24.036Z,7.13
2022-08-20T23:51:52.218Z,7.57
2022-08-20T23:54:20.256Z,7.25
2022-08-20T23:56:48.230Z,6.97
2022-08-20T23:59:16.237Z,7.57
